createdAt,value
2019-04-07T00:02:57.905Z,13.00
2019-04-07T00:07:49.411Z,13.20
2019-04-07T00:12:41.208Z,13.60
2019-04-07T00:17:32.330Z,13.10
2019-04-07T00:22:23.297Z,13.10
2019-04-07T00:27:14.487Z,12.80
2019-04-07T00:32:06.139Z,12.60
2019-04-07T00:36:57.860Z,12.90
2019-04-07T00:41:49.494Z,12.90
2019-04-07T00:46:40.389Z,12.80
2019-04-07T00:51:31.288Z,12.50
2019-04-07T00:56:22.191Z,12.20
2019-04-07T01:01:13.115Z,11.90
2019-04-07T01:06:04.037Z,11.70
2019-04-07T01:10:54.935Z,12.00
2019-04-07T01:15:46.033Z,12.20
2019-04-07T01:20:36.764Z,11.90
2019-04-07T01:25:27.678Z,11.50
2019-04-07T01:30:18.569Z,11.20
2019-04-07T01:35:10.242Z,10.90
2019-04-07T01:40:01.552Z,10.90
2019-04-07T01:44:58.430Z,11.30
2019-04-07T01:49:53.942Z,11.00
2019-04-07T02:00:11.305Z,10.40
2019-04-07T02:05:03.408Z,10.20
2019-04-07T02:09:55.791Z,10.10
2019-04-07T02:14:49.934Z,10.80
2019-04-07T02:19:47.077Z,10.70
2019-04-07T02:24:39.052Z,10.60
2019-04-07T02:29:33.434Z,10.20
2019-04-07T02:34:27.831Z,9.60
2019-04-07T02:39:20.182Z,9.60
2019-04-07T02:44:30.028Z,9.40
2019-04-07T02:49:26.341Z,9.40
2019-04-07T02:54:18.008Z,9.90
2019-04-07T02:59:12.887Z,9.60
2019-04-07T03:09:26.004Z,9.20
2019-04-07T03:14:19.730Z,8.90
2019-04-07T03:19:09.928Z,8.70
2019-04-07T03:24:01.601Z,8.70
2019-04-07T03:28:52.666Z,9.20
2019-04-07T03:33:45.973Z,9.30
2019-04-07T03:38:41.080Z,9.00
2019-04-07T03:43:37.949Z,8.70
2019-04-07T03:48:31.750Z,8.20
2019-04-07T03:53:26.861Z,8.20
2019-04-07T03:58:23.244Z,8.40
2019-04-07T04:03:15.804Z,8.40
2019-04-07T04:08:09.454Z,8.80
2019-04-07T04:13:01.907Z,8.60
2019-04-07T04:17:53.809Z,8.30
2019-04-07T04:22:44.329Z,8.00
2019-04-07T04:27:35.311Z,7.70
2019-04-07T04:32:25.630Z,7.60
2019-04-07T04:37:21.422Z,7.80
2019-04-07T04:42:07.291Z,8.30
2019-04-07T04:46:58.453Z,8.20
2019-04-07T04:51:49.912Z,7.90
2019-04-07T04:56:40.026Z,7.60
2019-04-07T05:01:31.071Z,7.40
2019-04-07T05:06:21.845Z,7.20
2019-04-07T05:11:12.753Z,7.00
2019-04-07T05:16:05.010Z,7.80
2019-04-07T05:20:55.342Z,7.80
2019-04-07T05:25:46.245Z,7.70
2019-04-07T05:30:37.916Z,7.50
2019-04-07T05:35:36.315Z,7.20
2019-04-07T05:40:26.962Z,7.10
2019-04-07T05:45:18.798Z,7.10
2019-04-07T05:50:10.057Z,7.10
2019-04-07T05:55:01.162Z,7.70
2019-04-07T05:59:51.366Z,8.00
2019-04-07T06:04:42.714Z,7.90
2019-04-07T06:09:33.951Z,7.80
2019-04-07T06:14:24.421Z,7.70
2019-04-07T06:19:15.089Z,7.70
2019-04-07T06:24:06.003Z,7.80
2019-04-07T06:28:58.712Z,8.20
2019-04-07T06:33:49.214Z,9.20
2019-04-07T06:38:43.247Z,9.20
2019-04-07T06:43:31.304Z,9.20
2019-04-07T06:48:22.284Z,9.20
2019-04-07T06:53:24.884Z,9.40
2019-04-07T06:58:17.345Z,9.40
2019-04-07T07:03:13.763Z,9.60
2019-04-07T07:08:10.101Z,10.90
2019-04-07T07:13:11.004Z,11.00
2019-04-07T07:17:59.336Z,11.00
2019-04-07T07:22:53.541Z,11.10
2019-04-07T07:27:44.524Z,11.10
2019-04-07T07:32:37.252Z,11.20
2019-04-07T07:37:26.936Z,11.40
2019-04-07T07:42:21.405Z,11.90
2019-04-07T07:47:08.165Z,12.50
2019-04-07T07:51:59.265Z,12.60
2019-04-07T07:56:51.208Z,12.60
2019-04-07T08:01:44.265Z,12.60
2019-04-07T08:06:31.827Z,12.60
2019-04-07T08:11:22.873Z,12.70
2019-04-07T08:16:14.069Z,13.20
2019-04-07T08:21:05.467Z,13.90
2019-04-07T08:25:57.114Z,13.90
2019-04-07T08:30:47.622Z,13.90
2019-04-07T08:35:39.591Z,14.00
2019-04-07T08:40:29.386Z,14.00
2019-04-07T08:45:20.025Z,14.20
2019-04-07T08:50:10.911Z,14.70
2019-04-07T08:55:01.972Z,15.50
2019-04-07T08:59:52.821Z,15.60
2019-04-07T09:04:47.274Z,15.70
2019-04-07T09:09:37.152Z,15.70
2019-04-07T09:14:25.653Z,15.80
2019-04-07T09:19:16.560Z,16.20
2019-04-07T09:24:29.820Z,16.80
2019-04-07T09:29:20.974Z,17.10
2019-04-07T09:34:20.094Z,17.00
2019-04-07T09:39:11.238Z,17.00
2019-04-07T09:44:06.990Z,17.00
2019-04-07T09:49:08.914Z,17.30
2019-04-07T09:54:00.466Z,17.90
2019-04-07T09:58:57.805Z,18.00
2019-04-07T10:03:54.398Z,17.90
2019-04-07T10:08:56.328Z,17.80
2019-04-07T10:13:48.991Z,17.80
2019-04-07T10:24:00.740Z,18.90
2019-04-07T10:28:57.901Z,18.90
2019-04-07T10:33:49.552Z,18.80
2019-04-07T10:38:41.474Z,18.80
2019-04-07T10:48:51.906Z,19.10
2019-04-07T10:59:11.648Z,20.00
2019-04-07T11:04:06.650Z,20.20
2019-04-07T11:09:01.750Z,20.30
2019-04-07T11:13:58.798Z,20.50
2019-04-07T11:18:51.794Z,20.90
2019-04-07T11:23:45.172Z,21.70
2019-04-07T11:28:39.986Z,22.10
2019-04-07T11:33:31.821Z,22.10
2019-04-07T11:38:24.656Z,22.40
2019-04-07T11:43:19.542Z,23.40
2019-04-07T11:48:10.212Z,23.40
2019-04-07T11:53:07.571Z,24.00
2019-04-07T11:58:10.966Z,24.30
2019-04-07T12:02:54.504Z,24.50
2019-04-07T12:07:46.379Z,25.20
2019-04-07T12:12:47.339Z,25.20
2019-04-07T12:17:41.450Z,26.20
2019-04-07T12:28:03.627Z,26.50
2019-04-07T12:32:57.619Z,26.80
2019-04-07T12:37:49.150Z,27.30
2019-04-07T12:42:43.060Z,27.30
2019-04-07T12:47:36.906Z,27.50
2019-04-07T12:52:34.562Z,27.20
2019-04-07T12:57:29.142Z,27.10
2019-04-07T13:02:21.081Z,27.10
2019-04-07T13:07:15.272Z,27.20
2019-04-07T13:12:09.640Z,27.20
2019-04-07T13:22:45.479Z,26.70
2019-04-07T13:27:38.860Z,26.30
2019-04-07T13:32:38.027Z,26.20
2019-04-07T13:37:20.087Z,26.30
2019-04-07T13:42:11.333Z,26.20
2019-04-07T13:47:06.560Z,25.80
2019-04-07T13:56:54.740Z,25.50
2019-04-07T14:07:13.143Z,25.80
2019-04-07T14:12:10.152Z,25.80
2019-04-07T14:16:56.110Z,25.60
2019-04-07T14:21:52.170Z,25.40
2019-04-07T14:26:43.455Z,25.50
2019-04-07T14:31:38.004Z,25.70
2019-04-07T14:36:35.159Z,25.60
2019-04-07T14:41:32.219Z,25.30
2019-04-07T14:46:29.217Z,25.10
2019-04-07T14:51:23.071Z,25.00
2019-04-07T14:56:17.580Z,25.60
2019-04-07T15:01:13.812Z,25.50
2019-04-07T15:06:05.174Z,25.50
2019-04-07T15:10:56.230Z,25.20
2019-04-07T15:15:46.340Z,25.00
2019-04-07T15:20:38.836Z,25.20
2019-04-07T15:25:29.687Z,25.20
2019-04-07T15:30:20.271Z,25.20
2019-04-07T15:35:13.226Z,24.80
2019-04-07T15:40:04.689Z,24.30
2019-04-07T15:44:52.651Z,24.00
2019-04-07T15:49:43.544Z,24.00
2019-04-07T15:54:35.062Z,24.10
2019-04-07T15:59:25.390Z,23.80
2019-04-07T16:04:16.304Z,23.30
2019-04-07T16:09:11.771Z,22.90
2019-04-07T16:13:59.625Z,22.80
2019-04-07T16:18:51.151Z,22.80
2019-04-07T16:23:42.953Z,22.40
2019-04-07T16:28:33.792Z,22.40
2019-04-07T16:33:25.070Z,21.90
2019-04-07T16:38:16.357Z,21.60
2019-04-07T16:43:13.413Z,21.40
2019-04-07T16:47:58.834Z,21.50
2019-04-07T16:52:56.144Z,21.50
2019-04-07T16:57:47.100Z,21.20
2019-04-07T17:02:39.537Z,20.40
2019-04-07T17:07:29.733Z,20.30
2019-04-07T17:12:20.588Z,20.40
2019-04-07T17:17:16.441Z,20.60
2019-04-07T17:22:03.188Z,20.00
2019-04-07T17:26:54.916Z,20.00
2019-04-07T17:31:45.602Z,19.60
2019-04-07T17:36:36.489Z,19.30
2019-04-07T17:41:27.548Z,19.40
2019-04-07T17:46:17.773Z,19.60
2019-04-07T17:51:09.927Z,19.40
2019-04-07T17:56:06.655Z,18.90
2019-04-07T18:00:58.532Z,18.40
2019-04-07T18:11:13.244Z,18.40
2019-04-07T18:16:07.176Z,18.50
2019-04-07T18:21:00.767Z,18.20
2019-04-07T18:25:57.949Z,17.70
2019-04-07T18:30:52.647Z,17.30
2019-04-07T18:35:43.866Z,17.10
2019-04-07T18:40:40.896Z,17.30
2019-04-07T18:45:33.831Z,17.40
2019-04-07T18:50:31.111Z,16.90
2019-04-07T18:55:26.484Z,16.50
2019-04-07T19:00:19.671Z,15.90
2019-04-07T19:05:12.929Z,15.80
2019-04-07T19:10:10.660Z,16.10
2019-04-07T19:15:04.069Z,16.10
2019-04-07T19:20:09.416Z,15.70
2019-04-07T19:25:11.625Z,14.80
2019-04-07T19:30:02.191Z,14.80
2019-04-07T19:34:55.171Z,14.90
2019-04-07T19:39:46.803Z,14.90
2019-04-07T19:44:43.790Z,14.60
2019-04-07T19:55:14.301Z,14.10
2019-04-07T20:05:25.436Z,13.90
2019-04-07T20:10:24.535Z,13.90
2019-04-07T20:15:19.979Z,14.10
2019-04-07T20:20:12.192Z,13.70
2019-04-07T20:25:08.658Z,13.20
2019-04-07T20:29:56.538Z,12.90
2019-04-07T20:34:48.329Z,12.60
2019-04-07T20:39:39.880Z,12.70
2019-04-07T20:50:01.396Z,12.50
2019-04-07T20:54:54.364Z,12.20
2019-04-07T20:59:50.275Z,11.80
2019-04-07T21:04:42.678Z,11.80
2019-04-07T21:09:36.561Z,11.60
2019-04-07T21:14:29.415Z,11.70
2019-04-07T21:19:21.072Z,11.90
2019-04-07T21:24:18.263Z,11.90
2019-04-07T21:29:11.338Z,11.50
2019-04-07T21:34:08.838Z,11.20
2019-04-07T21:39:01.204Z,11.00
2019-04-07T21:43:56.957Z,11.30
2019-04-07T21:48:48.580Z,11.20
2019-04-07T21:53:39.499Z,11.40
2019-04-07T21:58:30.415Z,11.20
2019-04-07T22:03:27.587Z,10.80
2019-04-07T22:08:23.380Z,10.50
2019-04-07T22:13:15.320Z,10.30
2019-04-07T22:18:08.494Z,10.70
2019-04-07T22:23:01.058Z,10.80
2019-04-07T22:27:48.516Z,10.80
2019-04-07T22:32:40.715Z,10.30
2019-04-07T22:37:31.088Z,10.20
2019-04-07T22:42:22.472Z,10.00
2019-04-07T22:47:15.480Z,9.70
2019-04-07T22:52:05.486Z,9.60
2019-04-07T22:56:56.411Z,10.10
2019-04-07T23:01:47.319Z,10.30
2019-04-07T23:06:38.159Z,10.10
2019-04-07T23:11:28.360Z,9.80
2019-04-07T23:16:20.234Z,9.50
2019-04-07T23:21:10.201Z,9.30
2019-04-07T23:26:01.947Z,9.10
2019-04-07T23:30:52.126Z,9.20
2019-04-07T23:35:43.039Z,9.80
2019-04-07T23:40:34.291Z,9.70
2019-04-07T23:45:25.340Z,9.50
2019-04-07T23:50:16.739Z,9.10
2019-04-07T23:55:06.894Z,8.90
2019-04-07T23:59:58.526Z,8.60
